Flight Track Log - Related Links

Times and Time Zones

All times are in EDT time to prevent confusion due to time zone crossing. See the N966QS flight status page for this flight to view local times or setup timezone preferences in your user account.

Time Position Orientation Groundspeed Altitude Reporting Facility
EDT Latitude Longitude Course Direction KTS MPH feet Rate Location/Type
Wed 04:55:49 PM 43.1928 -89.3150 173° South 253 291 4,100  Level Chicago Center
Wed 04:56:51 PM 43.1394 -89.2631 145° Southeast 253 291 8,200 3,339 Climbing Chicago Center
Wed 04:57:53 PM 43.0522 -89.2575 177° South 265 305 11,000 1,306 Climbing Chicago Center
Wed 04:58:55 PM 42.9578 -89.2508 177° South 327 376 10,900 -48 Descending Chicago Center
Wed 04:59:58 PM 42.8678 -89.2439 177° South 329 379 10,900  Level Chicago Center
Wed 05:01:00 PM 42.6236 -89.2468 173° South  Level FlightAware Approximate
Wed 05:01:01 PM 42.7794 -89.2383 177° South 320 368 10,900  Level Chicago Center
Wed 05:02:03 PM 42.6772 -89.2303 177° South 317 365 10,300 -480 Descending Chicago Center
Wed 05:03:06 PM 42.5994 -89.2236 176° South 291 335 9,900 -192 Descending Chicago Center
Wed 05:04:08 PM 42.5281 -89.2206 178° South 265 305 9,900 48 Level Chicago Center
Wed 05:05:10 PM 42.4500 -89.2158 177° South 275 316 10,000 -435 Climbing Chicago Center
Wed 05:06:12 PM 42.3742 -89.2089 176° South 276 318 9,000 -1,016 Descending Chicago Center
Wed 05:07:14 PM 42.2872 -89.2039 178° South 270 311 7,900 -532 Descending Chicago Center
Wed 05:08:16 PM 42.2278 -89.1469 145° Southeast 266 306 7,900 -581 Level Chicago Center
Wed 05:09:18 PM 42.1744 -89.0794 137° Southeast 264 304 6,700 -1,355 Descending Chicago Center
Wed 05:10:20 PM 42.1214 -89.0144 138° Southeast 259 298 5,100 -871 Descending Chicago Center
Wed 05:11:22 PM 42.0669 -88.9492 138° Southeast 255 293 4,900 -97 Descending Chicago Center
Wed 05:12:24 PM 42.0125 -88.8833 138° Southeast 262 302 4,900  Level Chicago Center
Wed 05:13:26 PM 41.9606 -88.8175 137° Southeast 259 298 4,900  Level Chicago Center
Wed 05:14:29 PM 41.8956 -88.7389 138° Southeast 263 303 4,900 48 Level Chicago Center
Wed 05:15:31 PM 41.8428 -88.6753 138° Southeast 259 298 5,000 48 Climbing Chicago Center
Wed 05:16:33 PM 41.7897 -88.6125 139° Southeast 257 296 5,000 -48 Level Chicago Center
Wed 05:17:35 PM 41.7367 -88.5489 138° Southeast 257 296 4,900 -48 Descending Chicago Center
Wed 05:18:37 PM 41.6833 -88.4836 138° Southeast 260 299 4,900  Level Chicago Center
Wed 05:19:39 PM 41.6322 -88.3917 127° Southeast 261 300 4,900 48 Level Chicago Center
Wed 05:20:41 PM 41.6025 -88.3036 114° Southeast 260 299 5,000  Climbing Chicago Center
Wed 05:21:43 PM 41.5872 -88.2061 102° East 266 306 4,900  Descending Chicago Center
Wed 05:22:45 PM 41.5825 -88.1069 94° East 267 307 5,000  Climbing Chicago Center
Wed 05:23:47 PM 41.5828 -88.0064 90° East 267 307 4,900  Descending Chicago Center
Wed 05:24:49 PM 41.5922 -87.9056 83° East 271 312 5,000  Climbing Chicago Center
Wed 05:25:52 PM 41.6008 -87.8061 83° East 240 276 4,900 -624 Descending Chicago Center
Wed 05:26:54 PM 41.6092 -87.7247 82° East 227 261 3,700 -968 Descending Chicago Center
Wed 05:27:56 PM 41.6217 -87.6581 76° East 212 244 2,900 -629 Descending Chicago Center
Wed 05:28:58 PM 41.6608 -87.6119 41° Northeast 198 228 2,400 -240 Descending Chicago Center
Wed 05:30:01 PM 41.7094 -87.6431 334° Northwest 202 232 2,400 -242 Level Chicago Center
Wed 05:31:02 PM 41.7556 -87.7053 315° West 199 229 1,900 -298 Descending Chicago Center
Wed 05:32:02 PM 41.8000 -87.6833 20° North 179 206 1,800 -397 Descending Chicago TRACON
Wed 05:33:03 PM 41.8000 -87.7333 270° West 132 152 1,100 -689 Descending Chicago TRACON

Login

Don't have an account? Register now (free) for customized features, flight alerts, and more!